Time;durP1;ratioP1;P1;durP2;ratioP2;P2;SDS_P1;SDS_P2;PMS_P1;PMS_P2;Temp;Humidity;BMP_temperature;BMP_pressure;BME280_temperature;BME280_humidity;BME280_pressure;Samples;Min_cycle;Max_cycle;Signal;HPM_P1;HPM_P2
2021/12/06 00:01:49;;;;;;;;;;;;;;;3.53;100.00;93763.72;10403644;28;19917;-76
2021/12/06 00:06:53;;;;;;;;;;;;;;;3.75;100.00;93758.31;10404232;28;19929;-77
2021/12/06 00:11:59;;;;;;;;;;;;;;;3.74;100.00;93750.56;10403554;28;20350;-73
2021/12/06 00:17:07;;;;;;;;;;;;;;;3.65;100.00;93754.75;10405595;28;19921;-75
2021/12/06 00:22:11;;;;;;;;;;;;;;;3.47;100.00;93748.75;10402928;28;20418;-74
2021/12/06 00:27:11;;;;;;;;;;;;;;;3.64;100.00;93775.19;10402780;28;19944;-74
2021/12/06 00:32:12;;;;;;;;;;;;;;;3.67;100.00;93777.38;10403360;28;20004;-79
2021/12/06 00:37:22;;;;;;;;;;;;;;;3.71;100.00;93790.94;10378857;28;19921;-77
2021/12/06 00:42:27;;;;;;;;;;;;;;;3.76;100.00;93762.53;10378697;28;20006;-78
2021/12/06 00:47:27;;;;;;;;;;;;;;;3.81;100.00;93768.97;10380064;28;20431;-73
2021/12/06 00:52:27;;;;;;;;;;;;;;;3.60;100.00;93792.72;10388806;28;19973;-77
2021/12/06 00:57:28;;;;;;;;;;;;;;;3.70;100.00;93781.38;10377336;28;20405;-74
2021/12/06 01:02:28;;;;;;;;;;;;;;;3.70;100.00;93781.38;10399469;28;20347;-77
2021/12/06 01:07:28;;;;;;;;;;;;;;;3.63;100.00;93776.28;10400954;28;19920;-77
2021/12/06 01:12:29;;;;;;;;;;;;;;;3.54;100.00;93788.41;10378690;28;19972;-73
2021/12/06 01:17:29;;;;;;;;;;;;;;;3.60;100.00;93776.78;10376678;28;19952;-76
2021/12/06 01:22:41;;;;;;;;;;;;;;;3.75;100.00;93778.75;10376197;28;19921;-74
2021/12/06 01:28:18;;;;;;;;;;;;;;;3.66;100.00;93786.41;10371023;28;19929;-79
2021/12/06 01:44:09;;;;;;;;;;;;;;;3.50;100.00;93755.44;10338113;28;20008;-73
2021/12/06 01:49:09;;;;;;;;;;;;;;;3.49;100.00;93719.28;10360259;28;19917;-74
2021/12/06 01:54:10;;;;;;;;;;;;;;;3.11;100.00;93732.50;10376164;28;19975;-74
2021/12/06 01:59:11;;;;;;;;;;;;;;;3.09;100.00;93724.00;10376021;28;20313;-80
2021/12/06 02:04:11;;;;;;;;;;;;;;;3.08;100.00;93733.00;10380457;28;19921;-78
2021/12/06 02:09:13;;;;;;;;;;;;;;;3.26;100.00;93729.19;10388467;28;19913;-74
2021/12/06 02:19:19;;;;;;;;;;;;;;;3.58;100.00;93741.69;10410593;28;20449;-74
2021/12/06 02:24:19;;;;;;;;;;;;;;;3.62;100.00;93742.78;10412339;28;19920;-79
2021/12/06 02:29:20;;;;;;;;;;;;;;;3.37;100.00;93746.81;10408308;28;20406;-78
2021/12/06 02:34:21;;;;;;;;;;;;;;;3.40;100.00;93742.88;10407682;28;19913;-81
2021/12/06 02:39:24;;;;;;;;;;;;;;;3.46;100.00;93720.63;10409274;28;19928;-83
2021/12/06 02:44:24;;;;;;;;;;;;;;;3.55;100.00;93723.59;10408243;28;19925;-77
2021/12/06 02:49:24;;;;;;;;;;;;;;;3.50;100.00;93720.91;10407431;28;19913;-80
2021/12/06 02:54:26;;;;;;;;;;;;;;;3.52;100.00;93713.50;10409178;28;19920;-80
2021/12/06 02:59:26;;;;;;;;;;;;;;;3.76;100.00;93713.91;10412961;28;20319;-75
2021/12/06 03:04:27;;;;;;;;;;;;;;;3.54;100.00;93720.13;10426537;28;19996;-76
2021/12/06 03:09:29;;;;;;;;;;;;;;;3.71;100.00;93722.66;10407300;28;20391;-76
2021/12/06 03:14:34;;;;;;;;;;;;;;;3.99;100.00;93707.44;10404861;28;20264;-74
2021/12/06 03:19:35;;;;;;;;;;;;;;;4.13;100.00;93697.13;10405491;28;20363;-79
2021/12/06 03:24:36;;;;;;;;;;;;;;;4.30;100.00;93710.25;10405751;28;19921;-76
2021/12/06 03:29:36;;;;;;;;;;;;;;;4.29;100.00;93721.94;10405415;28;20198;-76
2021/12/06 03:34:37;;;;;;;;;;;;;;;4.41;100.00;93703.91;10404320;28;19919;-78
2021/12/06 03:39:40;;;;;;;;;;;;;;;4.41;100.00;93711.06;10405439;28;20401;-74
2021/12/06 03:44:40;;;;;;;;;;;;;;;4.59;100.00;93702.66;10406608;28;19936;-73
2021/12/06 03:49:42;;;;;;;;;;;;;;;4.62;100.00;93696.78;10405768;28;19920;-74
2021/12/06 03:54:43;;;;;;;;;;;;;;;4.74;100.00;93693.09;10404323;28;19917;-74
2021/12/06 03:59:44;;;;;;;;;;;;;;;4.84;100.00;93705.63;10368560;28;19921;-74
2021/12/06 04:04:44;;;;;;;;;;;;;;;4.91;100.00;93698.19;10379214;28;19971;-77
2021/12/06 04:09:44;;;;;;;;;;;;;;;4.96;100.00;93690.22;10379145;28;19924;-74
2021/12/06 04:14:46;;;;;;;;;;;;;;;4.99;100.00;93688.91;10378872;28;20039;-74
2021/12/06 04:19:46;;;;;;;;;;;;;;;4.92;100.00;93700.59;10363480;28;19949;-75
2021/12/06 04:24:47;;;;;;;;;;;;;;;4.97;100.00;93692.63;10378331;28;20048;-78
2021/12/06 04:29:49;;;;;;;;;;;;;;;4.98;100.00;93690.75;10363076;28;19918;-75
2021/12/06 04:34:50;;;;;;;;;;;;;;;4.95;100.00;93691.28;10389926;28;20402;-74
2021/12/06 04:39:50;;;;;;;;;;;;;;;5.01;100.00;93708.06;10401942;28;19924;-76
2021/12/06 04:44:51;;;;;;;;;;;;;;;4.93;100.00;93694.22;10386054;28;19921;-74
2021/12/06 04:49:51;;;;;;;;;;;;;;;5.03;100.00;93704.09;10401754;28;20442;-74
2021/12/06 04:54:54;;;;;;;;;;;;;;;4.79;100.00;93709.88;10401980;28;19917;-80
2021/12/06 04:59:56;;;;;;;;;;;;;;;4.84;100.00;93711.75;10376782;28;19921;-75
2021/12/06 05:04:59;;;;;;;;;;;;;;;4.77;100.00;93696.06;10374481;28;20346;-77
2021/12/06 05:10:00;;;;;;;;;;;;;;;4.78;100.00;93699.50;10378745;28;20016;-79
2021/12/06 05:15:01;;;;;;;;;;;;;;;4.80;100.00;93710.69;10400369;28;19967;-76
2021/12/06 05:20:03;;;;;;;;;;;;;;;4.99;100.00;93726.19;10371820;28;19928;-75
2021/12/06 05:25:04;;;;;;;;;;;;;;;5.00;100.00;93730.44;10399071;28;20426;-76
2021/12/06 05:30:06;;;;;;;;;;;;;;;5.01;100.00;93724.84;10365672;28;19913;-80
2021/12/06 05:35:08;;;;;;;;;;;;;;;5.02;100.00;93731.75;10391252;28;19924;-76
2021/12/06 05:40:11;;;;;;;;;;;;;;;5.07;100.00;93712.34;10399554;28;20020;-76
2021/12/06 05:45:12;;;;;;;;;;;;;;;5.03;100.00;93703.28;10400314;28;19913;-76
2021/12/06 05:50:12;;;;;;;;;;;;;;;4.96;100.00;93708.88;10398371;28;19920;-77
2021/12/06 05:55:13;;;;;;;;;;;;;;;4.87;100.00;93713.09;10375441;28;20449;-82
2021/12/06 06:00:16;;;;;;;;;;;;;;;4.81;100.00;93701.63;10375879;28;19918;-80
2021/12/06 06:05:18;;;;;;;;;;;;;;;4.76;100.00;93729.03;10374895;28;19913;-74
2021/12/06 06:10:18;;;;;;;;;;;;;;;4.81;100.00;93730.91;10374898;28;19913;-78
2021/12/06 06:15:19;;;;;;;;;;;;;;;4.74;100.00;93739.13;10359717;28;19936;-75
2021/12/06 06:20:22;;;;;;;;;;;;;;;4.97;100.00;93695.28;10359853;28;20358;-74
2021/12/06 06:25:22;;;;;;;;;;;;;;;5.29;100.00;93704.91;10374183;28;19913;-76
2021/12/06 06:30:23;;;;;;;;;;;;;;;5.48;100.00;93739.84;10374573;28;20293;-76
2021/12/06 06:35:24;;;;;;;;;;;;;;;5.57;100.00;93739.31;10373958;28;19924;-75
2021/12/06 06:40:24;;;;;;;;;;;;;;;5.66;100.00;93737.72;10359352;28;19922;-77
2021/12/06 06:45:25;;;;;;;;;;;;;;;5.81;100.00;93753.69;10360456;28;20449;-79
2021/12/06 06:50:25;;;;;;;;;;;;;;;5.94;100.00;93733.69;10363995;28;19913;-74
2021/12/06 06:55:26;;;;;;;;;;;;;;;6.11;100.00;93743.28;10366406;28;20327;-74
2021/12/06 07:00:28;;;;;;;;;;;;;;;6.11;100.00;93752.13;10364897;28;19924;-76
2021/12/06 07:05:28;;;;;;;;;;;;;;;6.30;100.00;93754.22;10380951;28;19960;-75
2021/12/06 07:10:29;;;;;;;;;;;;;;;6.41;100.00;93745.09;10381824;28;20486;-77
2021/12/06 07:15:31;;;;;;;;;;;;;;;6.50;100.00;93732.00;10381036;28;19944;-79
2021/12/06 07:20:32;;;;;;;;;;;;;;;6.49;100.00;93725.88;10380349;28;19918;-76
2021/12/06 07:25:34;;;;;;;;;;;;;;;6.83;100.00;93735.09;10380672;28;19936;-74
2021/12/06 07:30:34;;;;;;;;;;;;;;;7.02;100.00;93732.59;10380159;28;19992;-76
2021/12/06 07:35:35;;;;;;;;;;;;;;;7.37;100.00;93730.78;10364679;28;19921;-78
2021/12/06 07:40:35;;;;;;;;;;;;;;;7.53;100.00;93742.97;10379241;28;19941;-77
2021/12/06 07:45:36;;;;;;;;;;;;;;;7.59;100.00;93746.41;10379847;28;20012;-76
2021/12/06 07:50:36;;;;;;;;;;;;;;;7.40;100.00;93729.44;10379797;28;20427;-74
2021/12/06 07:55:37;;;;;;;;;;;;;;;7.05;100.00;93741.91;10379721;28;20812;-76
2021/12/06 08:00:39;;;;;;;;;;;;;;;7.04;100.00;93725.09;10378108;28;19917;-74
2021/12/06 08:05:41;;;;;;;;;;;;;;;7.01;100.00;93737.13;10378794;28;19920;-74
2021/12/06 08:10:44;;;;;;;;;;;;;;;7.10;100.00;93729.34;10380006;28;20000;-78
2021/12/06 08:15:45;;;;;;;;;;;;;;;7.20;100.00;93739.19;10380215;28;19941;-75
2021/12/06 08:20:45;;;;;;;;;;;;;;;7.18;100.00;93725.28;10379069;28;20028;-76
2021/12/06 08:25:47;;;;;;;;;;;;;;;7.34;100.00;93742.81;10378429;28;19936;-75
2021/12/06 08:30:47;;;;;;;;;;;;;;;7.64;100.00;93722.28;10363483;28;19940;-76
2021/12/06 08:35:52;;;;;;;;;;;;;;;7.87;100.00;93719.97;10378808;28;20465;-76
2021/12/06 08:40:54;;;;;;;;;;;;;;;7.90;100.00;93724.75;10382345;28;19925;-81
2021/12/06 08:45:56;;;;;;;;;;;;;;;7.85;100.00;93701.50;10367897;28;20248;-76
2021/12/06 08:50:59;;;;;;;;;;;;;;;7.91;100.00;93709.50;10377111;28;19917;-76
2021/12/06 08:55:59;;;;;;;;;;;;;;;8.06;100.00;93705.91;10377715;28;19914;-76
2021/12/06 09:01:00;;;;;;;;;;;;;;;8.31;100.00;93696.81;10378079;28;20340;-75
2021/12/06 09:06:03;;;;;;;;;;;;;;;8.46;100.00;93714.63;10378254;28;19917;-79
2021/12/06 09:11:04;;;;;;;;;;;;;;;8.74;100.00;93712.16;10376485;28;19920;-74
2021/12/06 09:16:06;;;;;;;;;;;;;;;8.90;100.00;93692.09;10376674;28;19914;-75
2021/12/06 09:21:08;;;;;;;;;;;;;;;9.07;100.00;93686.28;10363295;28;19925;-74
2021/12/06 09:26:08;;;;;;;;;;;;;;;9.30;100.00;93686.50;10361772;28;19918;-74
2021/12/06 09:31:10;;;;;;;;;;;;;;;9.49;100.00;93671.19;10376828;28;20425;-77
2021/12/06 09:36:12;;;;;;;;;;;;;;;9.57;100.00;93670.50;10376146;28;19975;-78
2021/12/06 09:41:14;;;;;;;;;;;;;;;9.41;100.00;93667.25;10376371;28;19922;-76
2021/12/06 09:46:15;;;;;;;;;;;;;;;9.19;100.00;93691.97;10359820;28;20334;-75
2021/12/06 09:51:18;;;;;;;;;;;;;;;9.60;100.00;93677.19;10343812;28;19913;-75
2021/12/06 09:56:22;;;;;;;;;;;;;;;9.67;100.00;93656.16;10375885;28;19913;-75
2021/12/06 10:01:24;;;;;;;;;;;;;;;9.97;100.00;93655.91;10375978;28;20398;-80
2021/12/06 10:06:26;;;;;;;;;;;;;;;10.10;100.00;93649.75;10375360;28;19913;-75
2021/12/06 10:11:27;;;;;;;;;;;;;;;10.03;100.00;93630.56;10375011;28;19913;-78
2021/12/06 10:16:27;;;;;;;;;;;;;;;9.84;100.00;93609.19;10375122;28;19944;-76
2021/12/06 10:21:28;;;;;;;;;;;;;;;9.76;100.00;93597.22;10377002;28;19997;-76
2021/12/06 10:26:30;;;;;;;;;;;;;;;9.94;100.00;93590.19;10381497;28;19919;-74
2021/12/06 10:31:31;;;;;;;;;;;;;;;10.17;100.00;93577.69;10382576;28;20403;-76
2021/12/06 10:36:32;;;;;;;;;;;;;;;10.23;100.00;93589.91;10365677;28;19929;-74
2021/12/06 10:41:34;;;;;;;;;;;;;;;10.18;100.00;93581.94;10383622;28;19940;-76
2021/12/06 10:46:34;;;;;;;;;;;;;;;10.19;100.00;93569.34;10367021;28;19987;-74
2021/12/06 10:51:35;;;;;;;;;;;;;;;10.17;100.00;93568.81;10364800;28;19913;-77
2021/12/06 10:56:42;;;;;;;;;;;;;;;10.20;100.00;93555.59;10381243;28;19914;-74
2021/12/06 11:01:43;;;;;;;;;;;;;;;10.42;100.00;93573.72;10381538;28;20374;-76
2021/12/06 11:06:45;;;;;;;;;;;;;;;10.13;100.00;93582.06;10381097;28;20338;-76
2021/12/06 11:11:49;;;;;;;;;;;;;;;10.16;100.00;93594.06;10381130;28;20021;-75
2021/12/06 11:16:52;;;;;;;;;;;;;;;9.77;100.00;93579.22;10380451;28;19936;-77
2021/12/06 11:21:54;;;;;;;;;;;;;;;9.80;100.00;93578.66;10363822;28;19960;-74
2021/12/06 11:26:55;;;;;;;;;;;;;;;9.38;100.00;93576.69;10380265;28;20032;-75
2021/12/06 11:31:57;;;;;;;;;;;;;;;9.61;100.00;93584.88;10379977;28;19975;-76
2021/12/06 11:36:58;;;;;;;;;;;;;;;9.45;100.00;93583.56;10363122;28;19926;-81
2021/12/06 11:41:58;;;;;;;;;;;;;;;9.85;100.00;93578.53;10364729;28;19925;-75
2021/12/06 11:47:01;;;;;;;;;;;;;;;10.77;100.00;93563.28;10346516;28;20059;-74
2021/12/06 11:52:01;;;;;;;;;;;;;;;11.20;100.00;93575.47;10379142;28;19913;-79
2021/12/06 11:57:31;;;;;;;;;;;;;;;10.37;100.00;93565.75;10395614;28;19913;-75
2021/12/06 12:02:34;;;;;;;;;;;;;;;10.36;100.00;93548.03;10386119;28;19925;-79
2021/12/06 12:07:53;;;;;;;;;;;;;;;10.41;100.00;93539.88;10402494;28;20298;-74
2021/12/06 12:12:54;;;;;;;;;;;;;;;10.62;100.00;93542.13;10402639;28;19920;-76
2021/12/06 12:17:54;;;;;;;;;;;;;;;10.52;100.00;93543.16;10404092;28;19920;-77
2021/12/06 12:23:00;;;;;;;;;;;;;;;10.33;100.00;93535.19;10403022;28;19923;-75
2021/12/06 12:33:08;;;;;;;;;;;;;;;9.81;100.00;93534.63;10403307;28;19952;-74
2021/12/06 12:38:11;;;;;;;;;;;;;;;9.83;100.00;93519.03;10402499;28;19929;-79
2021/12/06 12:43:31;;;;;;;;;;;;;;;9.98;100.00;93518.72;10402914;28;19921;-74
2021/12/06 12:48:44;;;;;;;;;;;;;;;9.96;100.00;93541.59;10400804;28;19920;-76
2021/12/06 12:53:45;;;;;;;;;;;;;;;9.80;100.00;93544.56;10401492;28;19983;-75
2021/12/06 12:58:45;;;;;;;;;;;;;;;9.63;100.00;93552.38;10401150;28;20385;-75
2021/12/06 13:03:45;;;;;;;;;;;;;;;9.15;100.00;93556.16;10400645;28;19917;-77
2021/12/06 13:08:47;;;;;;;;;;;;;;;8.74;100.00;93543.41;10401731;28;19920;-75
2021/12/06 13:13:50;;;;;;;;;;;;;;;8.88;100.00;93542.34;10384178;28;19936;-75
2021/12/06 13:19:11;;;;;;;;;;;;;;;8.84;100.00;93536.00;10401313;28;19913;-75
2021/12/06 13:24:11;;;;;;;;;;;;;;;8.89;100.00;93543.16;10400683;28;20581;-75
2021/12/06 13:29:14;;;;;;;;;;;;;;;8.97;100.00;93544.38;10400474;28;19978;-74
2021/12/06 13:34:31;;;;;;;;;;;;;;;8.53;100.00;93571.25;10401262;28;19920;-76
2021/12/06 13:39:33;;;;;;;;;;;;;;;8.67;100.00;93583.94;10407833;28;19925;-76
2021/12/06 13:44:50;;;;;;;;;;;;;;;8.59;100.00;93589.94;10409307;28;19931;-74
2021/12/06 13:49:51;;;;;;;;;;;;;;;8.67;100.00;93578.59;10400401;28;19974;-76
2021/12/06 13:55:19;;;;;;;;;;;;;;;8.53;100.00;93589.22;10369519;28;19913;-74
2021/12/06 14:00:24;;;;;;;;;;;;;;;8.64;100.00;93590.66;10380064;28;20317;-73
2021/12/06 14:05:25;;;;;;;;;;;;;;;8.65;100.00;93588.78;10382956;28;19921;-76
2021/12/06 14:10:26;;;;;;;;;;;;;;;8.72;100.00;93571.28;10367323;28;20387;-74
2021/12/06 14:15:42;;;;;;;;;;;;;;;8.79;100.00;93556.69;10379743;28;19914;-74
2021/12/06 14:20:46;;;;;;;;;;;;;;;8.93;100.00;93536.16;10407620;28;19967;-78
2021/12/06 14:25:51;;;;;;;;;;;;;;;8.92;100.00;93550.63;10406611;28;20383;-75
2021/12/06 14:30:55;;;;;;;;;;;;;;;9.01;100.00;93564.16;10394712;28;19928;-74
2021/12/06 14:35:55;;;;;;;;;;;;;;;8.71;100.00;93567.00;10381897;28;19932;-74
2021/12/06 14:41:01;;;;;;;;;;;;;;;8.71;100.00;93567.00;10381999;28;19922;-74
2021/12/06 14:46:03;;;;;;;;;;;;;;;8.76;100.00;93568.00;10366033;28;20339;-74
2021/12/06 14:51:13;;;;;;;;;;;;;;;8.90;100.00;93574.22;10349434;28;19918;-75
2021/12/06 14:56:39;;;;;;;;;;;;;;;8.96;100.00;93562.34;10381893;28;20371;-76
2021/12/06 15:01:40;;;;;;;;;;;;;;;8.98;100.00;93565.53;10381245;28;19932;-75
2021/12/06 15:06:40;;;;;;;;;;;;;;;8.94;100.00;93558.38;10381666;28;20663;-77
2021/12/06 15:11:41;;;;;;;;;;;;;;;8.91;100.00;93559.75;10380493;28;19924;-74
2021/12/06 15:16:42;;;;;;;;;;;;;;;8.81;100.00;93563.38;10366133;28;19920;-77
2021/12/06 15:21:47;;;;;;;;;;;;;;;8.82;100.00;93564.16;10379847;28;19925;-76
2021/12/06 15:26:53;;;;;;;;;;;;;;;8.87;100.00;93559.53;10379734;28;19920;-74
2021/12/06 15:31:56;;;;;;;;;;;;;;;8.85;100.00;93558.22;10379661;28;19917;-73
2021/12/06 15:36:56;;;;;;;;;;;;;;;8.68;100.00;93569.47;10373947;28;19932;-75
2021/12/06 15:42:10;;;;;;;;;;;;;;;8.52;100.00;93572.34;10371641;28;20375;-75
2021/12/06 15:47:13;;;;;;;;;;;;;;;8.32;100.00;93576.06;10363763;28;20436;-74
2021/12/06 15:52:15;;;;;;;;;;;;;;;8.27;100.00;93572.66;10346088;28;20000;-74
2021/12/06 15:57:19;;;;;;;;;;;;;;;8.33;100.00;93574.97;10378802;28;19993;-75
2021/12/06 16:02:23;;;;;;;;;;;;;;;8.14;100.00;93571.47;10362584;28;19921;-78
2021/12/06 16:07:32;;;;;;;;;;;;;;;8.07;100.00;93571.81;10392370;28;19913;-75
2021/12/06 16:12:32;;;;;;;;;;;;;;;7.94;100.00;93580.53;10386326;28;19995;-77
2021/12/06 16:17:34;;;;;;;;;;;;;;;7.66;100.00;93583.75;10365046;28;19967;-75
2021/12/06 16:22:36;;;;;;;;;;;;;;;7.59;100.00;93588.66;10400911;28;20017;-79
2021/12/06 16:27:36;;;;;;;;;;;;;;;7.44;100.00;93592.25;10438925;28;20294;-76
2021/12/06 16:32:38;;;;;;;;;;;;;;;7.11;100.00;93592.00;10366615;28;19917;-79
2021/12/06 16:37:38;;;;;;;;;;;;;;;7.33;100.00;93599.56;10387553;28;19931;-76
2021/12/06 16:42:47;;;;;;;;;;;;;;;7.50;100.00;93614.41;10441661;28;19924;-74
2021/12/06 16:47:50;;;;;;;;;;;;;;;7.50;100.00;93625.09;10427083;28;20401;-76
2021/12/06 16:52:52;;;;;;;;;;;;;;;7.43;100.00;93614.72;10402484;28;20007;-80
2021/12/06 16:57:55;;;;;;;;;;;;;;;7.38;100.00;93621.97;10397983;28;20399;-77
2021/12/06 17:03:00;;;;;;;;;;;;;;;7.24;100.00;93632.50;10399918;28;19917;-75
2021/12/06 17:08:03;;;;;;;;;;;;;;;7.27;100.00;93627.41;10391385;28;19928;-79
2021/12/06 17:13:03;;;;;;;;;;;;;;;7.24;100.00;93630.66;10399827;28;19924;-75
2021/12/06 17:18:14;;;;;;;;;;;;;;;7.04;100.00;93628.91;10440476;28;19916;-75
2021/12/06 17:23:19;;;;;;;;;;;;;;;6.94;100.00;93612.97;10358420;28;19917;-78
2021/12/06 17:28:30;;;;;;;;;;;;;;;6.79;100.00;93621.88;10373814;28;20315;-78
2021/12/06 17:33:48;;;;;;;;;;;;;;;6.73;100.00;93629.13;10373639;28;19917;-75
2021/12/06 17:38:51;;;;;;;;;;;;;;;6.57;100.00;93631.09;10374821;28;19925;-76
2021/12/06 17:43:52;;;;;;;;;;;;;;;6.56;100.00;93636.66;10375278;28;19972;-77
2021/12/06 17:48:52;;;;;;;;;;;;;;;6.68;100.00;93629.13;10359761;28;20012;-76
2021/12/06 17:53:54;;;;;;;;;;;;;;;6.97;100.00;93618.53;10357846;28;19936;-76
2021/12/06 17:58:55;;;;;;;;;;;;;;;7.10;100.00;93621.66;10359265;28;19956;-77
2021/12/06 18:03:57;;;;;;;;;;;;;;;7.18;100.00;93608.50;10361985;28;19922;-78
2021/12/06 18:08:57;;;;;;;;;;;;;;;7.02;100.00;93604.38;10361295;28;20327;-76
2021/12/06 18:13:58;;;;;;;;;;;;;;;7.01;100.00;93614.25;10406083;28;19913;-74
2021/12/06 18:18:58;;;;;;;;;;;;;;;7.04;100.00;93610.22;10440241;28;20386;-75
2021/12/06 18:23:59;;;;;;;;;;;;;;;7.13;100.00;93599.72;10383317;28;19924;-76
2021/12/06 18:28:59;;;;;;;;;;;;;;;7.21;100.00;93601.00;10368246;28;20643;-76
2021/12/06 18:34:00;;;;;;;;;;;;;;;7.15;100.00;93593.03;10400383;28;20039;-76
2021/12/06 18:39:05;;;;;;;;;;;;;;;7.15;100.00;93600.25;10397684;28;19963;-77
2021/12/06 18:49:16;;;;;;;;;;;;;;;7.33;100.00;93588.09;10366538;28;19914;-76
2021/12/06 18:54:17;;;;;;;;;;;;;;;7.27;100.00;93587.34;10380900;28;19975;-78
2021/12/06 18:59:17;;;;;;;;;;;;;;;7.31;100.00;93574.19;10404199;28;19962;-75
2021/12/06 19:04:19;;;;;;;;;;;;;;;7.32;100.00;93576.59;10404522;28;19917;-77
2021/12/06 19:09:20;;;;;;;;;;;;;;;7.21;100.00;93575.06;10395677;28;20403;-75
2021/12/06 19:14:20;;;;;;;;;;;;;;;7.33;100.00;93564.81;10426941;28;20011;-79
2021/12/06 19:19:20;;;;;;;;;;;;;;;7.39;100.00;93573.59;10445137;28;19940;-75
2021/12/06 19:24:21;;;;;;;;;;;;;;;7.40;100.00;93559.16;10367367;28;20315;-74
2021/12/06 19:29:22;;;;;;;;;;;;;;;7.36;100.00;93550.09;10364462;28;19914;-76
2021/12/06 19:34:22;;;;;;;;;;;;;;;7.43;100.00;93536.41;10363953;28;19913;-78
2021/12/06 19:39:24;;;;;;;;;;;;;;;7.05;100.00;93566.41;10363161;28;19976;-76
2021/12/06 19:44:27;;;;;;;;;;;;;;;6.98;100.00;93579.28;10377956;28;19967;-75
2021/12/06 19:49:27;;;;;;;;;;;;;;;6.75;100.00;93580.78;10364445;28;19949;-74
2021/12/06 19:54:27;;;;;;;;;;;;;;;6.71;100.00;93577.06;10363059;28;20000;-78
2021/12/06 19:59:28;;;;;;;;;;;;;;;6.60;100.00;93566.47;10361843;28;19918;-75
2021/12/06 20:04:29;;;;;;;;;;;;;;;6.61;100.00;93583.25;10379557;28;19921;-75
2021/12/06 20:09:29;;;;;;;;;;;;;;;6.65;100.00;93579.75;10393107;28;19921;-73
2021/12/06 20:14:30;;;;;;;;;;;;;;;6.52;100.00;93588.41;10391654;28;20008;-77
2021/12/06 20:19:30;;;;;;;;;;;;;;;6.45;100.00;93587.91;10378173;28;20063;-71
2021/12/06 20:24:31;;;;;;;;;;;;;;;6.43;100.00;93582.84;10401217;28;20279;-72
2021/12/06 20:29:31;;;;;;;;;;;;;;;6.52;100.00;93585.72;10398730;28;20383;-73
2021/12/06 20:34:31;;;;;;;;;;;;;;;6.48;100.00;93574.00;10377629;28;19914;-74
2021/12/06 20:39:32;;;;;;;;;;;;;;;6.46;100.00;93576.13;10376702;28;19937;-77
2021/12/06 20:44:32;;;;;;;;;;;;;;;6.68;100.00;93567.72;10360861;28;19948;-74
2021/12/06 20:49:33;;;;;;;;;;;;;;;6.76;100.00;93566.34;10389940;28;19924;-74
2021/12/06 20:54:34;;;;;;;;;;;;;;;6.70;100.00;93567.44;10398045;28;20401;-74
2021/12/06 20:59:35;;;;;;;;;;;;;;;6.66;100.00;93570.69;10361507;28;20387;-78
2021/12/06 21:04:35;;;;;;;;;;;;;;;6.75;100.00;93562.88;10376729;28;19918;-75
2021/12/06 21:09:38;;;;;;;;;;;;;;;7.01;100.00;93570.72;10374900;28;19917;-75
2021/12/06 21:15:07;;;;;;;;;;;;;;;7.17;100.00;93587.41;10425192;28;20391;-75
2021/12/06 21:20:02;;;;;;;;;;;;;;;7.18;100.00;93586.34;10441908;28;19960;-77
2021/12/06 21:25:02;;;;;;;;;;;;;;;7.07;100.00;93579.47;10396455;28;20525;-75
2021/12/06 21:30:04;;;;;;;;;;;;;;;6.94;100.00;93570.22;10388727;28;20263;-74
2021/12/06 21:35:05;;;;;;;;;;;;;;;6.89;100.00;93572.94;10389433;28;19932;-77
2021/12/06 21:40:06;;;;;;;;;;;;;;;6.98;100.00;93565.94;10401212;28;19940;-77
2021/12/06 21:45:07;;;;;;;;;;;;;;;6.78;100.00;93562.34;10375844;28;19930;-78
2021/12/06 21:50:08;;;;;;;;;;;;;;;6.25;100.00;93551.44;10374906;28;20331;-76
2021/12/06 21:55:09;;;;;;;;;;;;;;;5.91;100.00;93566.22;10374954;28;19918;-77
2021/12/06 22:00:11;;;;;;;;;;;;;;;5.78;100.00;93553.50;10374380;28;20032;-73
2021/12/06 22:05:11;;;;;;;;;;;;;;;5.92;100.00;93561.72;10374882;28;20327;-74
2021/12/06 22:10:13;;;;;;;;;;;;;;;5.97;100.00;93554.50;10362291;28;19921;-75
2021/12/06 22:15:13;;;;;;;;;;;;;;;5.96;100.00;93554.75;10387485;28;20389;-75
2021/12/06 22:20:14;;;;;;;;;;;;;;;6.02;100.00;93548.34;10368576;28;19921;-76
2021/12/06 22:25:15;;;;;;;;;;;;;;;5.56;100.00;93546.63;10383573;28;20391;-75
2021/12/06 22:30:18;;;;;;;;;;;;;;;5.20;100.00;93557.34;10383835;28;20705;-77
2021/12/06 22:35:19;;;;;;;;;;;;;;;5.14;100.00;93563.75;10350008;28;19914;-79
2021/12/06 22:40:21;;;;;;;;;;;;;;;5.20;100.00;93559.22;10382303;28;19921;-75
2021/12/06 22:45:21;;;;;;;;;;;;;;;5.38;100.00;93563.97;10366884;28;19957;-74
2021/12/06 22:50:21;;;;;;;;;;;;;;;5.13;100.00;93570.94;10382767;28;20048;-74
2021/12/06 22:55:22;;;;;;;;;;;;;;;4.89;100.00;93572.53;10366940;28;19921;-73
2021/12/06 23:00:25;;;;;;;;;;;;;;;4.94;100.00;93570.69;10382000;28;19917;-73
2021/12/06 23:05:27;;;;;;;;;;;;;;;4.96;100.00;93568.53;10367385;28;19913;-74
2021/12/06 23:10:28;;;;;;;;;;;;;;;4.93;100.00;93553.09;10366233;28;19968;-74
2021/12/06 23:15:31;;;;;;;;;;;;;;;4.99;100.00;93529.94;10381407;28;19943;-79
2021/12/06 23:20:33;;;;;;;;;;;;;;;4.96;100.00;93522.50;10366951;28;20427;-76
2021/12/06 23:25:34;;;;;;;;;;;;;;;4.47;100.00;93531.00;10365958;28;20278;-75
2021/12/06 23:30:35;;;;;;;;;;;;;;;4.35;100.00;93520.59;10365511;28;19936;-74
2021/12/06 23:35:41;;;;;;;;;;;;;;;4.17;100.00;93525.38;10380481;28;19917;-81
2021/12/06 23:51:06;;;;;;;;;;;;;;;4.07;100.00;93504.06;10366379;28;19913;-77
2021/12/06 23:56:06;;;;;;;;;;;;;;;3.86;100.00;93495.25;10379606;28;20008;-77
